createdAt,value
2023-11-30T04:32:18.842Z,96830.88
2023-11-30T04:37:20.551Z,96818.59
2023-11-30T04:42:22.222Z,96807.63
2023-11-30T04:47:23.976Z,96825.72
2023-11-30T04:52:25.717Z,96844.69
2023-11-30T04:57:27.443Z,96832.47
2023-11-30T05:02:29.208Z,96847.16
2023-11-30T05:07:30.931Z,96852.09
2023-11-30T05:12:32.677Z,96850.84
2023-11-30T05:17:34.523Z,96852.63
2023-11-30T05:22:36.229Z,96857.97
2023-11-30T05:27:37.866Z,96856.03
2023-11-30T05:32:39.824Z,96844.63
2023-11-30T05:37:41.505Z,96839.63
2023-11-30T05:42:43.542Z,96835.03
2023-11-30T13:14:39.780Z,96452.66
2023-11-30T13:19:43.695Z,96455.88
2023-11-30T13:24:46.517Z,96455.31
2023-11-30T13:29:48.420Z,96451.47
2023-11-30T13:34:50.073Z,96443.19
2023-11-30T13:39:51.775Z,96442.94
2023-11-30T13:44:53.430Z,96440.81
2023-11-30T13:49:57.432Z,96447.03
2023-11-30T13:55:00.014Z,96440.94
2023-11-30T14:00:01.772Z,96438.97
2023-11-30T14:05:04.019Z,96425.94
2023-11-30T14:10:09.578Z,96437.97
2023-11-30T14:15:12.581Z,96430.84
2023-11-30T14:20:14.429Z,96410.28
2023-11-30T14:25:16.765Z,96427.00
2023-11-30T14:30:19.021Z,96433.88
2023-11-30T14:35:20.695Z,96430.50
2023-11-30T14:40:24.013Z,96436.13
2023-11-30T14:45:25.891Z,96440.25
2023-11-30T14:50:27.745Z,96438.38
2023-11-30T14:55:29.379Z,96447.28
2023-11-30T15:00:31.210Z,96455.31
2023-11-30T15:05:33.401Z,96442.63
2023-11-30T15:10:35.182Z,96442.44
2023-11-30T15:15:36.892Z,96442.75
2023-11-30T15:20:38.565Z,96444.47
2023-11-30T15:25:40.835Z,96449.31
2023-11-30T15:30:43.739Z,96454.66
2023-11-30T15:35:45.388Z,96448.50
2023-11-30T15:40:47.490Z,96446.22
2023-11-30T15:45:50.330Z,96454.19
2023-11-30T15:50:52.066Z,96424.91
2023-11-30T15:55:53.904Z,96450.91
2023-11-30T16:00:56.049Z,96448.38
2023-11-30T16:05:57.756Z,96457.09
2023-11-30T16:10:59.429Z,96457.84
2023-11-30T16:16:05.472Z,96451.78
2023-11-30T16:21:15.080Z,96474.50
2023-11-30T16:26:21.408Z,96471.13
2023-11-30T16:31:23.097Z,96479.16
2023-11-30T16:36:24.993Z,96478.66
2023-11-30T16:41:26.846Z,96481.13
2023-11-30T16:46:28.596Z,96474.25
2023-11-30T16:51:30.406Z,96475.19
2023-11-30T16:56:37.647Z,96495.03
2023-11-30T17:01:40.328Z,96496.00
2023-11-30T17:06:42.402Z,96512.28
2023-11-30T17:11:44.741Z,96486.75
2023-11-30T17:16:46.997Z,96487.31
2023-11-30T17:21:50.600Z,96504.88
2023-11-30T17:26:55.299Z,96499.44
2023-11-30T17:32:00.125Z,96507.66
2023-11-30T17:37:01.959Z,96509.75
2023-11-30T17:42:04.167Z,96520.59
2023-11-30T17:47:06.304Z,96509.84
2023-11-30T17:52:08.028Z,96495.94
2023-11-30T17:57:09.751Z,96516.72
2023-11-30T18:02:11.783Z,96519.44
2023-11-30T18:07:13.452Z,96510.91
2023-11-30T18:12:15.321Z,96514.53
2023-11-30T18:17:17.020Z,96514.50
2023-11-30T18:22:18.704Z,96515.03
2023-11-30T18:27:22.906Z,96495.38
2023-11-30T18:32:26.724Z,96501.78
2023-11-30T18:37:29.215Z,96488.34
2023-11-30T18:42:31.870Z,96495.22
2023-11-30T18:47:38.885Z,96496.94
2023-11-30T18:52:41.415Z,96508.69
2023-11-30T18:57:43.518Z,96503.34
2023-11-30T19:02:45.586Z,96502.94
2023-11-30T19:07:47.710Z,96506.06
2023-11-30T19:19:15.437Z,96501.22
2023-11-30T19:24:18.451Z,96501.22
2023-11-30T19:29:20.304Z,96502.44
2023-11-30T19:34:21.976Z,96510.00
2023-11-30T19:39:23.713Z,96521.88
2023-11-30T19:44:25.429Z,96519.31
2023-11-30T19:49:27.104Z,96506.66
2023-11-30T19:54:28.835Z,96501.78
2023-11-30T19:59:30.531Z,96513.97
2023-11-30T20:04:32.230Z,96518.03
2023-11-30T20:09:34.697Z,96524.03
2023-11-30T20:14:36.606Z,96498.25
2023-11-30T20:19:39.204Z,96504.69
2023-11-30T20:24:40.939Z,96487.44
2023-11-30T20:29:42.640Z,96486.66
2023-11-30T20:34:44.323Z,96475.41
2023-11-30T20:39:46.974Z,96483.06
2023-11-30T20:44:52.917Z,96489.31
2023-11-30T20:49:54.620Z,96481.69
2023-11-30T20:54:56.366Z,96481.84
2023-11-30T20:59:58.063Z,96489.31
2023-11-30T21:05:00.054Z,96494.25
2023-11-30T21:10:04.274Z,96506.69
2023-11-30T21:15:06.666Z,96519.00
2023-11-30T21:20:08.689Z,96513.72
2023-11-30T21:25:11.355Z,96526.72
2023-11-30T21:30:13.226Z,96528.19
